EBOS Airport Information

Runway Information
Runway 08 Length 10499 ft width 148 ft
Elevation 15 ft Threshold 985 ft Heading 77
Runway 26 Length 10499 ft Width 148 ft
Elevation 13 ft Threshold 1362 ft Heading 257
Runway 14 Length 2057 ft width 148 ft
Elevation 13 ft Threshold 0 ft Heading 137
Runway 32 Length 2057 ft Width 148 ft
Elevation 13 ft Threshold 0 ft Heading 317
Airport Frequencies
Type APP Name APP Frequency 120.6 MHZ
Type ATIS Name ATIS Frequency 126.12 MHZ
Type GND Name GND Frequency 121.975 MHZ
Type TWR Name TWR Frequency 118.175 MHZ
Airport Navaids
Type NDB Name Oostende Frequency 400 KHZ
Airport Weather Information & NOTAM
ADDS - METARS form results

(1435 UTC 25 October 2021)
Data provider http://aviationweather.gov/metar/data/
 
METAR text: EBOS 251420Z 17009KT 9999 FEW007 SCT038 13/11 Q1016 NOSIG
Conditions at: EBOS (OOSTENDE AIRPORT, BE) observed 1420 UTC 25 October 2021
Temperature: 13.0°C (55°F)
Dewpoint: 11.0°C (52°F) [RH = 88%]
Pressure (altimeter): 30.00 inches Hg (1016.0 mb)
Winds: from the S (170 degrees) at 10 MPH (9 knots; 4.6 m/s)
Visibility: 6 or more miles (10+ km)
Ceiling: at least 12,000 feet AGL
Clouds: few clouds at 700 feet AGL
scattered clouds at 3800 feet AGL
Weather: no significant weather observed at this time

METAR text: EBOS 251350Z 18009KT 9999 FEW007 SCT038 13/11 Q1016 NOSIG
Conditions at: EBOS (OOSTENDE AIRPORT, BE) observed 1350 UTC 25 October 2021
Temperature: 13.0°C (55°F)
Dewpoint: 11.0°C (52°F) [RH = 88%]
Pressure (altimeter): 30.00 inches Hg (1016.0 mb)
Winds: from the S (180 degrees) at 10 MPH (9 knots; 4.6 m/s)
Visibility: 6 or more miles (10+ km)
Ceiling: at least 12,000 feet AGL
Clouds: few clouds at 700 feet AGL
scattered clouds at 3800 feet AGL
Weather: no significant weather observed at this time

Forecast for: EBOS (OOSTENDE AIRPORT, BE)
Text: TAF EBOS 251110Z 2512/2618 21010KT 9999 SCT010 BKN040
Forecast period: 1200 UTC 25 October 2021 to 1800 UTC 26 October 2021
Forecast type: FROM: standard forecast or significant change
Winds: from the SSW (210 degrees) at 12 MPH (10 knots; 5.1 m/s)
Visibility: 6 or more miles (10+ km)
Ceiling: 4000 feet AGL
Clouds: scattered clouds at 1000 feet AGL
broken clouds at 4000 feet AGL
Weather: no significant weather forecast for this period
Text: TEMPO 2512/2521 4000 SHRA SHRAGS BKN014CB
Forecast period: 1200 to 2100 UTC 25 October 2021
Forecast type: TEMPORARY: The following changes expected for less than half the time period
Visibility: 2.49 miles (4.01 km)
Ceiling: 1400 feet AGL
Clouds: broken clouds at 1400 feet AGL
Weather: SHRA SHRA SHGS  (rain showers, rain showers, small hail or graupel showers)